Time;durP1;ratioP1;P1;durP2;ratioP2;P2;SDS_P1;SDS_P2;PMS_P1;PMS_P2;Temp;Humidity;BMP_temperature;BMP_pressure;BME280_temperature;BME280_humidity;BME280_pressure;Samples;Min_cycle;Max_cycle;Signal;HPM_P1;HPM_P2
2022/03/27 00:19:57;;;;;;;10.55;8.40;;;;;;;;;;4651658;29;20110;-69
2022/03/27 00:22:24;;;;;;;13.95;9.07;;;;;;;;;;4139369;34;20087;-69
2022/03/27 00:24:50;;;;;;;11.68;8.60;;;;;;;;;;4137048;34;20151;-68
2022/03/27 00:27:16;;;;;;;10.77;8.70;;;;;;;;;;4137263;34;20619;-68
2022/03/27 00:29:42;;;;;;;12.85;8.60;;;;;;;;;;4135294;34;20122;-65
2022/03/27 00:32:08;;;;;;;10.65;8.55;;;;;;;;;;4135170;34;20192;-69
2022/03/27 00:34:34;;;;;;;9.60;8.60;;;;;;;;;;4136937;34;20115;-68
2022/03/27 00:37:00;;;;;;;9.32;8.40;;;;;;;;;;4135653;34;20111;-66
2022/03/27 00:39:26;;;;;;;10.25;9.20;;;;;;;;;;4136766;34;20532;-64
2022/03/27 00:41:52;;;;;;;10.50;8.30;;;;;;;;;;4135496;34;20119;-66
2022/03/27 00:44:18;;;;;;;11.43;8.93;;;;;;;;;;4124368;34;20143;-67
2022/03/27 00:46:44;;;;;;;11.43;8.65;;;;;;;;;;4135685;34;20112;-71
2022/03/27 00:49:11;;;;;;;9.93;8.93;;;;;;;;;;4135409;34;20203;-70
2022/03/27 00:51:37;;;;;;;9.38;7.90;;;;;;;;;;4135267;34;20103;-70
2022/03/27 00:54:04;;;;;;;11.32;8.85;;;;;;;;;;4135671;34;20123;-71
2022/03/27 00:56:30;;;;;;;11.65;9.15;;;;;;;;;;4123214;34;20107;-72
2022/03/27 00:58:56;;;;;;;12.80;9.60;;;;;;;;;;4135587;34;20456;-71
2022/03/27 01:01:31;;;;;;;10.63;8.55;;;;;;;;;;4137255;34;20206;-68
2022/03/27 01:03:58;;;;;;;11.73;8.63;;;;;;;;;;4135720;34;20147;-67
2022/03/27 01:06:31;;;;;;;12.27;8.98;;;;;;;;;;4124449;34;20532;-68
2022/03/27 01:11:42;;;;;;;13.98;9.30;;;;;;;;;;4137173;34;20517;-67
2022/03/27 01:14:09;;;;;;;14.07;9.60;;;;;;;;;;4124518;34;20150;-67
2022/03/27 01:16:47;;;;;;;9.68;8.68;;;;;;;;;;4135591;34;20127;-67
2022/03/27 01:19:15;;;;;;;12.85;8.90;;;;;;;;;;4124390;34;20701;-67
2022/03/27 01:21:45;;;;;;;12.18;9.10;;;;;;;;;;4124383;34;20472;-67
2022/03/27 01:24:13;;;;;;;10.32;9.18;;;;;;;;;;4124288;34;20586;-67
2022/03/27 01:26:39;;;;;;;11.35;9.18;;;;;;;;;;4123964;34;20118;-67
2022/03/27 01:29:07;;;;;;;10.70;8.85;;;;;;;;;;4124229;34;20193;-67
2022/03/27 01:31:33;;;;;;;9.70;8.80;;;;;;;;;;4113218;34;20224;-67
2022/03/27 01:33:59;;;;;;;10.32;9.23;;;;;;;;;;4124388;34;20095;-67
2022/03/27 01:36:36;;;;;;;10.45;8.82;;;;;;;;;;4136497;34;20211;-67
2022/03/27 01:39:05;;;;;;;10.77;8.90;;;;;;;;;;4124693;34;20135;-67
2022/03/27 01:41:32;;;;;;;10.38;9.10;;;;;;;;;;4123791;34;20146;-66
2022/03/27 01:43:59;;;;;;;12.57;8.57;;;;;;;;;;4136421;34;20147;-66
2022/03/27 01:46:26;;;;;;;13.20;9.02;;;;;;;;;;4136438;34;20608;-66
2022/03/27 01:48:52;;;;;;;11.23;9.55;;;;;;;;;;4124140;34;20123;-66
2022/03/27 01:51:18;;;;;;;11.63;9.38;;;;;;;;;;4136366;34;20216;-66
2022/03/27 01:53:44;;;;;;;9.32;8.32;;;;;;;;;;4123813;34;20115;-66
2022/03/27 01:56:10;;;;;;;13.90;9.23;;;;;;;;;;4136106;34;20218;-66
2022/03/27 01:58:39;;;;;;;10.38;8.93;;;;;;;;;;4136609;34;20108;-66
2022/03/27 02:01:06;;;;;;;13.15;8.55;;;;;;;;;;4136427;34;20188;-67
2022/03/27 02:03:33;;;;;;;10.13;8.70;;;;;;;;;;4136544;34;20106;-67
2022/03/27 02:05:59;;;;;;;11.98;8.57;;;;;;;;;;4136307;34;20123;-67
2022/03/27 02:08:25;;;;;;;9.95;8.35;;;;;;;;;;4123620;34;20115;-66
2022/03/27 02:10:51;;;;;;;10.25;8.88;;;;;;;;;;4136257;34;20123;-67
2022/03/27 02:13:22;;;;;;;12.88;8.23;;;;;;;;;;4136197;34;20202;-67
2022/03/27 02:15:53;;;;;;;12.48;9.48;;;;;;;;;;4134988;34;20191;-67
2022/03/27 02:18:19;;;;;;;12.93;10.25;;;;;;;;;;4134627;34;20135;-67
2022/03/27 02:20:45;;;;;;;12.10;8.38;;;;;;;;;;4134898;34;20119;-67
2022/03/27 02:23:14;;;;;;;14.35;10.43;;;;;;;;;;4123662;34;20110;-67
2022/03/27 02:25:40;;;;;;;11.70;9.32;;;;;;;;;;4136068;34;20479;-67
2022/03/27 02:28:07;;;;;;;12.10;9.57;;;;;;;;;;4136231;34;20103;-67
2022/03/27 02:30:34;;;;;;;11.93;8.98;;;;;;;;;;4123888;34;20123;-67
2022/03/27 02:33:00;;;;;;;14.52;9.98;;;;;;;;;;4123845;34;20131;-67
2022/03/27 02:35:26;;;;;;;12.43;10.10;;;;;;;;;;4136227;34;20123;-65
2022/03/27 02:37:52;;;;;;;11.70;9.98;;;;;;;;;;4135902;34;20111;-68
2022/03/27 02:40:19;;;;;;;10.73;9.57;;;;;;;;;;4134825;34;20128;-68
2022/03/27 02:42:45;;;;;;;12.82;9.82;;;;;;;;;;4123622;34;20214;-67
2022/03/27 02:45:11;;;;;;;15.07;10.15;;;;;;;;;;4135747;34;20135;-68
2022/03/27 02:47:37;;;;;;;10.48;9.48;;;;;;;;;;4135805;34;20201;-68
2022/03/27 02:50:05;;;;;;;12.48;9.10;;;;;;;;;;4123360;34;20115;-68
2022/03/27 02:52:32;;;;;;;11.50;9.70;;;;;;;;;;4123515;34;20119;-67
2022/03/27 02:54:58;;;;;;;15.20;10.40;;;;;;;;;;4135775;34;20215;-68
2022/03/27 02:57:25;;;;;;;14.35;10.07;;;;;;;;;;4125048;34;20205;-68
2022/03/27 02:59:52;;;;;;;13.95;9.85;;;;;;;;;;4137856;34;20095;-68
2022/03/27 03:02:21;;;;;;;13.60;9.98;;;;;;;;;;4125632;34;20522;-68
2022/03/27 03:04:48;;;;;;;15.65;10.65;;;;;;;;;;4125477;34;20504;-68
2022/03/27 03:07:17;;;;;;;11.90;10.15;;;;;;;;;;4137723;34;20107;-67
2022/03/27 03:09:44;;;;;;;12.65;10.75;;;;;;;;;;4125049;34;20225;-67
2022/03/27 03:12:10;;;;;;;13.10;10.63;;;;;;;;;;4136497;34;20114;-67
2022/03/27 03:14:36;;;;;;;13.43;10.95;;;;;;;;;;4137831;34;20147;-67
2022/03/27 03:17:04;;;;;;;11.60;9.80;;;;;;;;;;4137678;34;20208;-67
2022/03/27 03:19:31;;;;;;;12.98;8.68;;;;;;;;;;4125431;34;20534;-67
2022/03/27 03:21:57;;;;;;;15.85;10.32;;;;;;;;;;4137378;34;20525;-67
2022/03/27 03:24:27;;;;;;;11.88;9.88;;;;;;;;;;4124521;34;20201;-67
2022/03/27 03:26:56;;;;;;;12.73;9.73;;;;;;;;;;4135391;34;20126;-67
2022/03/27 03:29:22;;;;;;;12.35;9.18;;;;;;;;;;4124524;34;20579;-67
2022/03/27 03:31:48;;;;;;;12.32;11.00;;;;;;;;;;4124171;34;20126;-67
2022/03/27 03:34:15;;;;;;;12.90;10.50;;;;;;;;;;4136700;34;20126;-68
2022/03/27 03:36:44;;;;;;;10.13;9.13;;;;;;;;;;4124708;34;20111;-68
2022/03/27 03:39:10;;;;;;;11.07;8.80;;;;;;;;;;4124297;34;20107;-68
2022/03/27 03:42:09;;;;;;;12.68;9.52;;;;;;;;;;4124160;34;20103;-68
2022/03/27 03:44:55;;;;;;;12.88;9.77;;;;;;;;;;4136685;34;20111;-69
2022/03/27 03:47:21;;;;;;;12.90;10.05;;;;;;;;;;4112914;34;20112;-69
2022/03/27 03:53:39;;;;;;;14.23;9.95;;;;;;;;;;4108036;34;20123;-69
2022/03/27 03:56:46;;;;;;;15.90;10.45;;;;;;;;;;4106892;34;20104;-68
2022/03/27 04:02:00;;;;;;;14.45;10.45;;;;;;;;;;4148789;29;20104;-69
2022/03/27 04:04:55;;;;;;;14.35;10.98;;;;;;;;;;4124498;34;20194;-69
2022/03/27 04:08:20;;;;;;;12.63;10.02;;;;;;;;;;4106098;34;20139;-68
2022/03/27 04:10:56;;;;;;;15.55;10.48;;;;;;;;;;4107809;34;20119;-69
2022/03/27 04:13:52;;;;;;;14.45;10.32;;;;;;;;;;4124292;34;20115;-68
2022/03/27 04:16:31;;;;;;;;;;;;;;;;;;;;;
2022/03/27 04:19:23;;;;;;;11.60;9.80;;;;;;;;;;4127394;34;20546;-68
2022/03/27 04:22:04;;;;;;;12.98;10.35;;;;;;;;;;4124545;34;20130;-68
2022/03/27 04:24:31;;;;;;;12.88;10.20;;;;;;;;;;4137091;34;20110;-67
2022/03/27 04:27:11;;;;;;;13.80;10.20;;;;;;;;;;4125083;34;20131;-67
2022/03/27 04:29:42;;;;;;;12.48;10.95;;;;;;;;;;4124217;34;20118;-68
2022/03/27 04:33:08;;;;;;;12.50;10.77;;;;;;;;;;4101952;34;20229;-70
2022/03/27 04:36:12;;;;;;;13.18;9.90;;;;;;;;;;4074383;34;20200;-70
2022/03/27 04:39:23;;;;;;;;;;;;;;;;;;;;;
2022/03/27 04:42:41;;;;;;;13.35;11.00;;;;;;;;;;4035759;35;20137;-71
2022/03/27 04:46:32;;;;;;;13.70;11.77;;;;;;;;;;4042760;34;20130;-71
2022/03/27 04:52:51;;;;;;;16.77;11.18;;;;;;;;;;4066169;34;20119;-71
2022/03/27 04:55:17;;;;;;;14.52;11.18;;;;;;;;;;4096949;34;20127;-71
2022/03/27 04:57:43;;;;;;;14.32;12.35;;;;;;;;;;4122442;34;20155;-71
2022/03/27 05:00:11;;;;;;;13.90;11.12;;;;;;;;;;4124158;34;20091;-70
2022/03/27 05:02:41;;;;;;;12.90;11.27;;;;;;;;;;4113125;34;20634;-70
2022/03/27 05:05:10;;;;;;;17.05;12.25;;;;;;;;;;4124652;34;20108;-72
2022/03/27 05:07:40;;;;;;;14.98;11.82;;;;;;;;;;4102808;34;20647;-71
2022/03/27 05:10:07;;;;;;;14.07;11.30;;;;;;;;;;4124204;34;20094;-71
2022/03/27 05:12:48;;;;;;;15.80;12.70;;;;;;;;;;4123987;34;20123;-71
2022/03/27 07:52:05;;;;;;;12.07;10.05;;;;;;;;;;3420725;29;20521;-68
2022/03/27 08:01:32;;;;;;;10.43;9.32;;;;;;;;;;2439001;29;20109;-68
2022/03/27 08:03:59;;;;;;;11.45;10.35;;;;;;;;;;4068836;35;20140;-69
2022/03/27 08:06:25;;;;;;;13.50;11.10;;;;;;;;;;4101510;34;20220;-69
2022/03/27 08:08:51;;;;;;;15.27;11.10;;;;;;;;;;4106339;34;20564;-72
2022/03/27 08:11:17;;;;;;;14.20;12.65;;;;;;;;;;4095526;34;20158;-70
2022/03/27 08:13:44;;;;;;;12.80;11.50;;;;;;;;;;4106455;34;20136;-68
2022/03/27 08:16:10;;;;;;;14.93;12.48;;;;;;;;;;4106422;34;20711;-66
2022/03/27 08:18:36;;;;;;;15.07;13.25;;;;;;;;;;4106350;34;20206;-68
2022/03/27 08:21:39;;;;;;;14.57;12.07;;;;;;;;;;4117580;29;20115;-68
2022/03/27 08:24:33;;;;;;;15.82;12.70;;;;;;;;;;4072333;35;20155;-66
2022/03/27 08:27:39;;;;;;;15.23;12.35;;;;;;;;;;4058806;35;20679;-68
2022/03/27 08:30:11;;;;;;;16.55;13.80;;;;;;;;;;4064451;35;20112;-68
2022/03/27 08:32:41;;;;;;;14.85;13.35;;;;;;;;;;4102896;34;20120;-68
2022/03/27 08:35:27;;;;;;;15.35;13.75;;;;;;;;;;4077436;34;20186;-68
2022/03/27 08:38:26;;;;;;;19.30;14.32;;;;;;;;;;4109078;34;20111;-68
2022/03/27 08:41:13;;;;;;;;;;;;;;;;;;4087944;34;20133;-67
2022/03/27 08:43:40;;;;;;;20.12;14.07;;;;;;;;;;4108387;34;19984;-69
2022/03/27 08:46:06;;;;;;;15.27;13.68;;;;;;;;;;4108320;34;20103;-69
2022/03/27 08:48:36;;;;;;;16.83;14.10;;;;;;;;;;4097541;34;20100;-68
2022/03/27 08:51:25;;;;;;;15.38;13.60;;;;;;;;;;4098132;34;20127;-71
2022/03/27 08:54:08;;;;;;;16.80;15.02;;;;;;;;;;4097503;34;20120;-65
2022/03/27 08:56:34;;;;;;;15.73;13.18;;;;;;;;;;4110371;34;20252;-68
2022/03/27 08:59:09;;;;;;;15.25;13.05;;;;;;;;;;4086663;34;20104;-67
2022/03/27 09:01:35;;;;;;;15.25;13.68;;;;;;;;;;4109953;34;20092;-69
2022/03/27 09:04:02;;;;;;;19.45;13.90;;;;;;;;;;4110689;34;20204;-71
2022/03/27 09:06:28;;;;;;;20.33;15.90;;;;;;;;;;4097790;34;20136;-70
2022/03/27 09:08:54;;;;;;;16.92;14.38;;;;;;;;;;4109782;34;20533;-70
2022/03/27 09:11:21;;;;;;;15.95;14.25;;;;;;;;;;4109982;34;20179;-71
2022/03/27 09:13:48;;;;;;;15.07;13.30;;;;;;;;;;4086662;34;20212;-70
2022/03/27 09:16:15;;;;;;;13.65;11.98;;;;;;;;;;4109823;34;20521;-70
2022/03/27 09:18:55;;;;;;;14.82;12.23;;;;;;;;;;4097458;34;20200;-67
2022/03/27 09:21:26;;;;;;;16.65;12.30;;;;;;;;;;4108520;34;20140;-67
2022/03/27 09:23:58;;;;;;;14.98;13.32;;;;;;;;;;4108743;34;20119;-67
2022/03/27 09:26:24;;;;;;;14.38;12.88;;;;;;;;;;4097638;34;20127;-69
2022/03/27 09:28:57;;;;;;;13.32;12.02;;;;;;;;;;4097623;34;20128;-66
2022/03/27 09:31:27;;;;;;;12.57;11.27;;;;;;;;;;4108594;34;20108;-66
2022/03/27 09:33:57;;;;;;;13.05;10.93;;;;;;;;;;4108459;34;20560;-68
2022/03/27 09:36:25;;;;;;;13.30;11.40;;;;;;;;;;4104207;34;20450;-65
2022/03/27 09:39:15;;;;;;;12.50;11.20;;;;;;;;;;4106066;34;20111;-66
2022/03/27 09:41:51;;;;;;;11.95;10.68;;;;;;;;;;4108920;34;20143;-66
2022/03/27 09:44:19;;;;;;;12.13;10.90;;;;;;;;;;4108943;34;20151;-67
2022/03/27 09:46:54;;;;;;;11.63;10.45;;;;;;;;;;4107978;34;20639;-65
2022/03/27 09:49:35;;;;;;;12.35;10.80;;;;;;;;;;4103578;34;20103;-64
2022/03/27 09:52:12;;;;;;;11.85;10.75;;;;;;;;;;4104426;34;20224;-65
2022/03/27 09:55:00;;;;;;;11.05;10.05;;;;;;;;;;4108518;34;20152;-64
2022/03/27 09:57:40;;;;;;;11.07;10.02;;;;;;;;;;4101819;34;20213;-65
2022/03/27 10:00:15;;;;;;;12.10;9.35;;;;;;;;;;4106958;34;20105;-67
2022/03/27 10:02:43;;;;;;;10.10;8.98;;;;;;;;;;4107246;34;20111;-67
2022/03/27 10:05:11;;;;;;;9.50;8.38;;;;;;;;;;4108488;34;20104;-67
2022/03/27 10:07:44;;;;;;;9.40;8.00;;;;;;;;;;4109147;34;20104;-65
2022/03/27 10:10:15;;;;;;;8.25;7.45;;;;;;;;;;4091580;34;20136;-67
2022/03/27 10:12:43;;;;;;;8.45;7.65;;;;;;;;;;4108854;34;20123;-67
2022/03/27 10:15:14;;;;;;;6.05;5.30;;;;;;;;;;4085447;34;20133;-67
2022/03/27 10:17:46;;;;;;;5.32;4.68;;;;;;;;;;4084422;34;20757;-66
2022/03/27 10:20:17;;;;;;;5.20;4.57;;;;;;;;;;4095245;34;20128;-66
2022/03/27 10:23:12;;;;;;;5.30;4.78;;;;;;;;;;4105893;34;20104;-68
2022/03/27 10:25:45;;;;;;;6.53;4.28;;;;;;;;;;4103215;34;20544;-67
2022/03/27 10:28:11;;;;;;;5.62;3.90;;;;;;;;;;4094935;34;20123;-65
2022/03/27 10:30:38;;;;;;;6.35;3.37;;;;;;;;;;4107132;34;20123;-66
2022/03/27 10:33:09;;;;;;;4.10;3.33;;;;;;;;;;4106844;34;20224;-66
2022/03/27 10:35:53;;;;;;;6.03;3.22;;;;;;;;;;4096803;34;20127;-66
2022/03/27 10:38:38;;;;;;;3.30;2.80;;;;;;;;;;4107766;34;20132;-64
2022/03/27 10:41:13;;;;;;;3.47;2.40;;;;;;;;;;4096441;34;20116;-65
2022/03/27 10:44:01;;;;;;;3.40;2.83;;;;;;;;;;4095215;34;20175;-64
2022/03/27 10:46:29;;;;;;;3.28;2.58;;;;;;;;;;4096885;34;20111;-64
2022/03/27 10:49:11;;;;;;;3.00;2.45;;;;;;;;;;4109006;34;20574;-66
2022/03/27 10:51:39;;;;;;;5.87;2.60;;;;;;;;;;4108963;34;20128;-66
2022/03/27 10:54:06;;;;;;;4.07;2.58;;;;;;;;;;4108985;34;20203;-68
2022/03/27 10:56:45;;;;;;;3.25;2.10;;;;;;;;;;4109041;34;20172;-66
2022/03/27 10:59:14;;;;;;;3.70;2.20;;;;;;;;;;4096972;34;20124;-66
2022/03/27 11:01:54;;;;;;;3.90;2.60;;;;;;;;;;4096665;34;20123;-66
2022/03/27 11:04:39;;;;;;;5.50;2.75;;;;;;;;;;4108936;34;20213;-67
2022/03/27 11:07:32;;;;;;;2.67;2.33;;;;;;;;;;4096823;34;20178;-67
2022/03/27 11:09:58;;;;;;;2.53;2.33;;;;;;;;;;4105386;34;20555;-67
2022/03/27 11:12:24;;;;;;;2.45;2.12;;;;;;;;;;4107337;34;20143;-67
2022/03/27 11:14:56;;;;;;;3.08;2.10;;;;;;;;;;4107042;34;20537;-67
2022/03/27 11:17:39;;;;;;;4.87;2.47;;;;;;;;;;4103313;34;20089;-64
2022/03/27 11:20:25;;;;;;;4.80;2.60;;;;;;;;;;4097245;34;20525;-65
2022/03/27 11:23:04;;;;;;;3.92;2.50;;;;;;;;;;4089451;35;20305;-65
2022/03/27 11:25:37;;;;;;;4.22;2.40;;;;;;;;;;4097675;34;20129;-65
2022/03/27 11:28:03;;;;;;;2.70;2.50;;;;;;;;;;4097662;35;20585;-65
2022/03/27 11:30:30;;;;;;;3.15;2.65;;;;;;;;;;4108069;34;20107;-66
2022/03/27 11:33:22;;;;;;;4.18;2.60;;;;;;;;;;4098745;34;20135;-65
2022/03/27 11:36:00;;;;;;;2.92;2.30;;;;;;;;;;4109461;34;20533;-64
2022/03/27 11:38:31;;;;;;;2.87;2.17;;;;;;;;;;4110751;34;20540;-64
2022/03/27 11:40:57;;;;;;;2.72;2.25;;;;;;;;;;4109402;34;20675;-64
2022/03/27 11:43:32;;;;;;;4.37;2.37;;;;;;;;;;4098211;34;20119;-65
2022/03/27 11:46:09;;;;;;;3.67;2.42;;;;;;;;;;4098247;34;20207;-65
2022/03/27 11:48:36;;;;;;;3.65;2.90;;;;;;;;;;4110756;34;20124;-66
2022/03/27 11:51:15;;;;;;;3.40;2.65;;;;;;;;;;4109550;34;20123;-65
2022/03/27 11:53:44;;;;;;;3.67;3.00;;;;;;;;;;4109388;34;20135;-65
2022/03/27 11:56:11;;;;;;;6.00;5.40;;;;;;;;;;4110836;34;20123;-65
2022/03/27 11:58:38;;;;;;;6.95;6.22;;;;;;;;;;4110636;34;20139;-64
2022/03/27 12:01:10;;;;;;;6.68;4.82;;;;;;;;;;4110621;34;20104;-66
2022/03/27 12:03:39;;;;;;;3.20;2.90;;;;;;;;;;4109510;34;20139;-64
2022/03/27 12:06:09;;;;;;;3.25;2.95;;;;;;;;;;4110664;34;20537;-64
2022/03/27 12:08:40;;;;;;;3.85;3.45;;;;;;;;;;4110533;34;20119;-64
2022/03/27 12:11:07;;;;;;;3.83;3.42;;;;;;;;;;4109171;34;20239;-68
2022/03/27 12:13:42;;;;;;;3.92;3.58;;;;;;;;;;4098219;34;20442;-70
2022/03/27 12:16:15;;;;;;;4.35;3.95;;;;;;;;;;4098480;34;20111;-70
2022/03/27 12:18:44;;;;;;;4.97;4.32;;;;;;;;;;4110551;34;20472;-71
2022/03/27 12:21:14;;;;;;;5.28;4.78;;;;;;;;;;4107632;34;20132;-72
2022/03/27 12:23:50;;;;;;;5.20;4.70;;;;;;;;;;4107814;34;20168;-69
2022/03/27 12:32:02;;;;;;;4.43;4.07;;;;;;;;;;4107860;34;20212;-71
2022/03/27 12:34:29;;;;;;;4.30;3.90;;;;;;;;;;4105215;34;20559;-72
2022/03/27 12:37:11;;;;;;;4.05;3.28;;;;;;;;;;4097801;34;20112;-70
2022/03/27 12:39:58;;;;;;;4.10;3.30;;;;;;;;;;4110148;34;20139;-69
2022/03/27 12:42:39;;;;;;;3.75;3.15;;;;;;;;;;4097783;34;20774;-72
2022/03/27 12:45:11;;;;;;;3.65;3.20;;;;;;;;;;4110134;34;20129;-70
2022/03/27 12:47:42;;;;;;;3.35;3.05;;;;;;;;;;4109718;34;20104;-70
2022/03/27 12:50:13;;;;;;;4.05;3.10;;;;;;;;;;4110068;34;20438;-70
2022/03/27 12:52:57;;;;;;;3.03;2.70;;;;;;;;;;4105870;34;20124;-74
2022/03/27 12:55:29;;;;;;;3.65;2.87;;;;;;;;;;4096747;35;20558;-74
2022/03/27 12:57:58;;;;;;;6.12;3.70;;;;;;;;;;4095919;35;20113;-73
2022/03/27 13:00:29;;;;;;;5.12;3.60;;;;;;;;;;4096965;35;20112;-74
2022/03/27 13:03:11;;;;;;;3.97;3.58;;;;;;;;;;4097106;35;20108;-73
2022/03/27 13:08:31;;;;;;;5.18;3.20;;;;;;;;;;4105810;29;20100;-71
2022/03/27 13:11:20;;;;;;;4.07;3.67;;;;;;;;;;4138043;34;20566;-71
2022/03/27 13:13:47;;;;;;;3.28;2.85;;;;;;;;;;4147168;34;20122;-72
2022/03/27 13:16:22;;;;;;;4.20;3.10;;;;;;;;;;4141473;34;20129;-71
2022/03/27 13:19:14;;;;;;;4.22;3.10;;;;;;;;;;4147512;34;20140;-71
2022/03/27 13:21:45;;;;;;;4.57;3.30;;;;;;;;;;4148106;34;20123;-72
2022/03/27 13:24:16;;;;;;;6.40;3.75;;;;;;;;;;4132506;34;20127;-73
2022/03/27 13:26:47;;;;;;;3.55;2.35;;;;;;;;;;4136733;34;20115;-72
2022/03/27 13:29:14;;;;;;;2.83;2.15;;;;;;;;;;4137064;34;20496;-75
2022/03/27 13:31:40;;;;;;;2.10;1.90;;;;;;;;;;4136451;34;20131;-74
2022/03/27 13:34:08;;;;;;;1.55;1.42;;;;;;;;;;4134814;34;20100;-73
2022/03/27 13:36:38;;;;;;;1.40;1.30;;;;;;;;;;4134781;34;20148;-73
2022/03/27 13:39:14;;;;;;;1.73;1.60;;;;;;;;;;4147886;34;20105;-71
2022/03/27 13:44:30;;;;;;;1.42;1.33;;;;;;;;;;4149716;34;20099;-73
2022/03/27 13:46:57;;;;;;;2.17;1.45;;;;;;;;;;4140387;34;20224;-74
2022/03/27 13:49:24;;;;;;;1.98;1.50;;;;;;;;;;4137493;34;20139;-71
2022/03/27 13:51:50;;;;;;;1.92;1.37;;;;;;;;;;4137776;34;20504;-73
2022/03/27 13:54:20;;;;;;;1.37;1.27;;;;;;;;;;4141149;34;20111;-73
2022/03/27 13:56:47;;;;;;;1.37;1.20;;;;;;;;;;4150796;34;20122;-74
2022/03/27 13:59:14;;;;;;;1.52;1.42;;;;;;;;;;4151059;34;20118;-74
2022/03/27 14:01:41;;;;;;;1.50;1.40;;;;;;;;;;4151126;34;20196;-75
2022/03/27 14:04:09;;;;;;;1.50;1.40;;;;;;;;;;4152283;34;20516;-71
2022/03/27 14:06:42;;;;;;;1.77;1.67;;;;;;;;;;4151109;34;20102;-76
2022/03/27 14:09:12;;;;;;;3.05;1.73;;;;;;;;;;4151105;34;20122;-73
2022/03/27 14:11:51;;;;;;;1.70;1.60;;;;;;;;;;4152341;34;20161;-72
2022/03/27 14:14:17;;;;;;;1.60;1.50;;;;;;;;;;4147364;34;20115;-75
2022/03/27 14:16:44;;;;;;;1.67;1.58;;;;;;;;;;4135680;34;20219;-74
2022/03/27 14:19:11;;;;;;;2.25;1.87;;;;;;;;;;4135973;34;20182;-75
2022/03/27 14:21:46;;;;;;;1.75;1.60;;;;;;;;;;4137811;34;20118;-75
2022/03/27 14:24:33;;;;;;;2.12;1.90;;;;;;;;;;4140926;34;20723;-72
2022/03/27 14:27:03;;;;;;;2.00;1.80;;;;;;;;;;4149303;34;20131;-75
2022/03/27 14:29:29;;;;;;;2.30;1.95;;;;;;;;;;4148832;34;20122;-73
2022/03/27 14:31:58;;;;;;;2.22;1.87;;;;;;;;;;4142988;34;20524;-75
2022/03/27 14:34:27;;;;;;;1.70;1.60;;;;;;;;;;4136171;34;20489;-74
2022/03/27 14:36:59;;;;;;;2.12;1.92;;;;;;;;;;4136483;34;20501;-77
2022/03/27 14:39:43;;;;;;;2.10;1.90;;;;;;;;;;4127533;34;20091;-74
2022/03/27 14:42:12;;;;;;;2.35;1.90;;;;;;;;;;4149406;34;20667;-71
2022/03/27 14:44:46;;;;;;;2.37;1.62;;;;;;;;;;4125709;34;20142;-73
2022/03/27 14:47:13;;;;;;;1.75;1.50;;;;;;;;;;4147325;34;20206;-72
2022/03/27 14:49:40;;;;;;;5.18;1.62;;;;;;;;;;4137351;34;20219;-73
2022/03/27 14:52:14;;;;;;;2.10;1.90;;;;;;;;;;4151192;34;20124;-75
2022/03/27 14:57:25;;;;;;;1.53;1.43;;;;;;;;;;4149464;34;20119;-75
2022/03/27 14:59:55;;;;;;;1.00;1.00;;;;;;;;;;4148750;34;20552;-75
2022/03/27 15:02:21;;;;;;;1.48;1.37;;;;;;;;;;4152662;34;20118;-72
2022/03/27 15:05:25;;;;;;;1.33;1.23;;;;;;;;;;4144809;34;20755;-69
2022/03/27 15:07:57;;;;;;;1.80;1.50;;;;;;;;;;4149151;34;20103;-73
2022/03/27 15:10:25;;;;;;;1.40;1.30;;;;;;;;;;4146847;34;20080;-77
2022/03/27 15:12:55;;;;;;;1.60;1.50;;;;;;;;;;4141322;34;20202;-80
2022/03/27 15:15:21;;;;;;;4.32;1.73;;;;;;;;;;4140029;34;20123;-79
2022/03/27 15:17:56;;;;;;;2.45;1.50;;;;;;;;;;4151979;34;20154;-78
2022/03/27 15:20:31;;;;;;;2.05;1.40;;;;;;;;;;4152701;34;20123;-80
2022/03/27 15:22:57;;;;;;;1.40;1.30;;;;;;;;;;4151682;34;20112;-79
2022/03/27 15:25:23;;;;;;;1.42;1.33;;;;;;;;;;4138680;34;20123;-76
2022/03/27 15:27:50;;;;;;;3.22;1.60;;;;;;;;;;4147427;34;20123;-75
2022/03/27 15:30:16;;;;;;;3.60;3.30;;;;;;;;;;4148040;34;20107;-73
2022/03/27 15:32:45;;;;;;;1.30;1.20;;;;;;;;;;4145256;34;20138;-78
2022/03/27 15:35:11;;;;;;;4.78;1.50;;;;;;;;;;4145440;34;20099;-75
2022/03/27 15:37:37;;;;;;;1.40;1.30;;;;;;;;;;4146650;34;20093;-74
2022/03/27 15:40:07;;;;;;;1.37;1.20;;;;;;;;;;4147285;34;20111;-75
2022/03/27 15:42:33;;;;;;;1.77;1.67;;;;;;;;;;4150484;34;20130;-75
2022/03/27 15:45:01;;;;;;;2.55;1.70;;;;;;;;;;4150593;34;20515;-72
2022/03/27 15:47:28;;;;;;;1.62;1.52;;;;;;;;;;4148876;34;20135;-73
2022/03/27 15:49:54;;;;;;;1.95;1.30;;;;;;;;;;4150392;34;20208;-73
2022/03/27 15:52:20;;;;;;;1.60;1.50;;;;;;;;;;4145754;34;20106;-74
2022/03/27 15:54:46;;;;;;;2.58;1.20;;;;;;;;;;4137733;34;20158;-76
2022/03/27 15:57:12;;;;;;;1.35;1.25;;;;;;;;;;4148442;34;20118;-75
2022/03/27 15:59:39;;;;;;;1.40;1.30;;;;;;;;;;4137937;34;20195;-77
2022/03/27 16:02:06;;;;;;;1.50;1.40;;;;;;;;;;4151123;34;20122;-81
2022/03/27 16:04:33;;;;;;;1.83;1.60;;;;;;;;;;4150010;34;20133;-75
2022/03/27 16:07:00;;;;;;;2.37;2.17;;;;;;;;;;4146515;34;20111;-74
2022/03/27 16:09:26;;;;;;;1.50;1.40;;;;;;;;;;4129785;34;20143;-76
2022/03/27 16:11:53;;;;;;;1.70;1.25;;;;;;;;;;4147711;34;20207;-75
2022/03/27 16:14:19;;;;;;;1.40;1.30;;;;;;;;;;4148685;34;20134;-73
2022/03/27 16:16:45;;;;;;;1.62;1.35;;;;;;;;;;4145449;34;20130;-78
2022/03/27 16:19:16;;;;;;;1.62;1.52;;;;;;;;;;4136271;34;20115;-76
2022/03/27 16:21:43;;;;;;;2.25;1.85;;;;;;;;;;4146576;34;20104;-82
2022/03/27 16:24:09;;;;;;;2.12;1.90;;;;;;;;;;4134221;34;20524;-82
2022/03/27 16:26:35;;;;;;;2.15;1.62;;;;;;;;;;4120229;34;20102;-79
2022/03/27 16:29:01;;;;;;;1.50;1.40;;;;;;;;;;4128178;34;20142;-75
2022/03/27 16:31:27;;;;;;;1.60;1.50;;;;;;;;;;4136606;34;20099;-75
2022/03/27 16:33:53;;;;;;;1.60;1.50;;;;;;;;;;4145164;34;20129;-75
2022/03/27 16:36:19;;;;;;;2.62;1.80;;;;;;;;;;4145059;34;20586;-77
2022/03/27 16:38:46;;;;;;;1.95;1.77;;;;;;;;;;4149444;34;20138;-75
2022/03/27 16:41:12;;;;;;;1.45;1.35;;;;;;;;;;4141070;34;20135;-75
2022/03/27 16:43:38;;;;;;;1.60;1.50;;;;;;;;;;4144144;34;20111;-73
2022/03/27 16:46:04;;;;;;;1.50;1.40;;;;;;;;;;4136561;34;20102;-74
2022/03/27 16:48:30;;;;;;;1.42;1.33;;;;;;;;;;4123441;34;20111;-77
2022/03/27 16:50:56;;;;;;;1.40;1.30;;;;;;;;;;4143984;34;20110;-77
2022/03/27 16:53:22;;;;;;;1.50;1.40;;;;;;;;;;4135479;34;20488;-75
2022/03/27 16:55:48;;;;;;;1.33;1.27;;;;;;;;;;4140685;34;20536;-79
2022/03/27 16:58:14;;;;;;;1.48;1.37;;;;;;;;;;4155928;34;20584;-76
2022/03/27 17:00:41;;;;;;;1.45;1.35;;;;;;;;;;4136418;34;20096;-72
2022/03/27 17:03:07;;;;;;;1.42;1.33;;;;;;;;;;4136056;34;20105;-79
2022/03/27 17:05:33;;;;;;;1.52;1.40;;;;;;;;;;4137427;34;20095;-74
2022/03/27 17:07:59;;;;;;;1.50;1.40;;;;;;;;;;4124206;34;20142;-78
2022/03/27 17:10:25;;;;;;;1.58;1.48;;;;;;;;;;4134266;34;20849;-77
2022/03/27 17:12:52;;;;;;;1.58;1.48;;;;;;;;;;4135745;34;20107;-83
2022/03/27 17:15:18;;;;;;;1.83;1.62;;;;;;;;;;4147551;34;20099;-75
2022/03/27 17:17:44;;;;;;;2.47;2.28;;;;;;;;;;4148293;34;20111;-76
2022/03/27 17:20:12;;;;;;;3.33;2.08;;;;;;;;;;4144506;34;20115;-77
2022/03/27 17:22:38;;;;;;;1.70;1.60;;;;;;;;;;4136432;34;20135;-78
2022/03/27 17:25:05;;;;;;;1.23;1.12;;;;;;;;;;4136677;34;20475;-77
2022/03/27 17:27:31;;;;;;;1.42;1.33;;;;;;;;;;4138792;34;20166;-77
2022/03/27 17:29:58;;;;;;;1.60;1.50;;;;;;;;;;4150643;34;20103;-82
2022/03/27 17:32:24;;;;;;;1.42;1.33;;;;;;;;;;4151047;34;20145;-83
2022/03/27 17:34:50;;;;;;;1.20;1.20;;;;;;;;;;4137170;34;20117;-72
2022/03/27 17:37:17;;;;;;;1.48;1.37;;;;;;;;;;4145211;34;20115;-83
2022/03/27 17:39:43;;;;;;;1.35;1.25;;;;;;;;;;4130947;34;20216;-80
2022/03/27 17:42:09;;;;;;;2.50;1.30;;;;;;;;;;4125699;34;20114;-73
2022/03/27 17:44:36;;;;;;;1.62;1.35;;;;;;;;;;4149426;34;20115;-70
2022/03/27 17:47:04;;;;;;;1.50;1.40;;;;;;;;;;4149494;34;20126;-71
2022/03/27 17:49:30;;;;;;;1.67;1.50;;;;;;;;;;4149372;34;20142;-71
2022/03/27 17:51:56;;;;;;;1.48;1.37;;;;;;;;;;4136653;34;20116;-72
2022/03/27 17:54:23;;;;;;;1.60;1.50;;;;;;;;;;4148893;34;20149;-72
2022/03/27 17:56:49;;;;;;;2.15;1.70;;;;;;;;;;4149634;34;20115;-72
2022/03/27 17:59:15;;;;;;;2.65;1.80;;;;;;;;;;4149147;34;20115;-72
2022/03/27 18:01:45;;;;;;;2.58;1.70;;;;;;;;;;4149569;34;20125;-71
2022/03/27 18:04:11;;;;;;;2.65;2.28;;;;;;;;;;4149255;34;20202;-71
2022/03/27 18:06:37;;;;;;;2.42;1.87;;;;;;;;;;4149397;34;20107;-71
2022/03/27 18:09:04;;;;;;;1.92;1.80;;;;;;;;;;4148935;34;20523;-71
2022/03/27 18:11:30;;;;;;;2.28;1.62;;;;;;;;;;4149208;34;20118;-70
2022/03/27 18:13:56;;;;;;;1.80;1.70;;;;;;;;;;4149307;34;20119;-70
2022/03/27 18:16:22;;;;;;;2.65;1.75;;;;;;;;;;4149559;34;20126;-70
2022/03/27 18:18:49;;;;;;;2.58;1.60;;;;;;;;;;4149064;34;20138;-70
2022/03/27 18:21:15;;;;;;;2.65;1.70;;;;;;;;;;4149183;34;20111;-69
2022/03/27 18:23:41;;;;;;;2.20;2.00;;;;;;;;;;4148979;34;20193;-70
2022/03/27 18:26:13;;;;;;;1.95;1.80;;;;;;;;;;4148369;34;20186;-71
2022/03/27 18:28:40;;;;;;;4.40;3.40;;;;;;;;;;4149067;34;20209;-71
2022/03/27 18:31:06;;;;;;;1.60;1.50;;;;;;;;;;4149254;34;20095;-70